createdAt,value
2017-08-05T00:01:31.846Z,91.20
2017-08-05T00:04:01.808Z,91.20
2017-08-05T00:06:31.750Z,91.20
2017-08-05T00:09:01.942Z,91.60
2017-08-05T00:11:32.139Z,91.60
2017-08-05T00:14:01.662Z,91.30
2017-08-05T00:16:31.268Z,90.80
2017-08-05T00:19:00.875Z,90.60
2017-08-05T00:21:30.663Z,90.00
2017-08-05T00:24:00.808Z,88.50
2017-08-05T00:26:30.811Z,85.20
2017-08-05T00:29:01.324Z,82.70
2017-08-05T00:31:31.434Z,78.90
2017-08-05T00:34:00.918Z,76.10
2017-08-05T00:36:30.753Z,76.90
2017-08-05T00:39:00.272Z,76.60
2017-08-05T00:41:30.118Z,76.60
2017-08-05T00:43:59.668Z,75.80
2017-08-05T00:46:29.216Z,75.70
2017-08-05T00:48:58.715Z,76.60
2017-08-05T00:51:29.087Z,74.40
2017-08-05T00:53:59.610Z,74.20
2017-08-05T00:56:29.787Z,74.00
2017-08-05T00:58:59.907Z,74.30
2017-08-05T01:01:30.420Z,74.80
2017-08-05T01:04:01.424Z,74.40
2017-08-05T01:06:31.347Z,74.40
2017-08-05T01:09:00.899Z,75.00
2017-08-05T01:11:30.483Z,74.40
2017-08-05T01:14:00.411Z,76.10
2017-08-05T01:16:29.939Z,75.80
2017-08-05T01:18:59.481Z,76.40
2017-08-05T01:21:29.250Z,75.30
2017-08-05T01:23:58.750Z,75.10
2017-08-05T01:26:28.831Z,75.50
2017-08-05T01:28:58.770Z,78.00
2017-08-05T01:31:28.687Z,76.10
2017-08-05T01:33:59.081Z,76.40
2017-08-05T01:36:29.074Z,76.60
2017-08-05T01:38:59.028Z,75.20
2017-08-05T01:41:29.379Z,75.90
2017-08-05T01:43:59.234Z,76.40
2017-08-05T01:46:29.035Z,76.30
2017-08-05T01:48:59.028Z,79.50
2017-08-05T01:51:32.979Z,77.90
2017-08-05T01:54:03.570Z,82.40
2017-08-05T01:56:33.624Z,81.20
2017-08-05T01:59:03.814Z,83.60
2017-08-05T02:01:34.127Z,80.80
2017-08-05T02:04:04.867Z,80.70
2017-08-05T02:06:35.111Z,80.60
2017-08-05T02:09:05.015Z,83.90
2017-08-05T02:11:34.818Z,81.80
2017-08-05T02:14:06.123Z,83.70
2017-08-05T02:16:35.696Z,83.70
2017-08-05T02:19:06.460Z,82.50
2017-08-05T02:21:36.509Z,82.40
2017-08-05T02:24:06.615Z,84.00
2017-08-05T02:26:37.068Z,85.30
2017-08-05T02:29:06.790Z,84.40
2017-08-05T02:31:36.831Z,85.10
2017-08-05T02:34:08.466Z,83.20
2017-08-05T02:36:38.043Z,83.20
2017-08-05T02:39:07.566Z,82.10
2017-08-05T02:41:37.102Z,82.40
2017-08-05T02:44:06.618Z,82.10
2017-08-05T02:46:36.507Z,81.60
2017-08-05T02:49:06.101Z,81.10
2017-08-05T02:51:35.591Z,81.10
2017-08-05T02:54:05.123Z,80.40
2017-08-05T02:56:34.663Z,81.10
2017-08-05T02:59:04.999Z,81.90
2017-08-05T03:01:34.607Z,81.50
2017-08-05T03:04:04.742Z,81.10
2017-08-05T03:06:34.739Z,81.40
2017-08-05T03:09:05.424Z,80.20
2017-08-05T03:11:35.250Z,81.50
2017-08-05T03:14:05.162Z,80.20
2017-08-05T03:16:35.739Z,80.00
2017-08-05T03:19:06.060Z,80.00
2017-08-05T03:21:36.046Z,81.00
2017-08-05T03:24:06.031Z,80.80
2017-08-05T03:26:36.308Z,81.80
2017-08-05T03:29:05.834Z,81.60
2017-08-05T03:31:35.355Z,82.70
2017-08-05T03:34:05.083Z,83.70
2017-08-05T03:36:34.655Z,84.50
2017-08-05T03:39:04.779Z,84.90
2017-08-05T03:41:34.287Z,83.50
2017-08-05T03:44:04.146Z,84.40
2017-08-05T03:46:34.007Z,87.50
2017-08-05T03:49:04.100Z,88.50
2017-08-05T03:51:35.787Z,87.60
2017-08-05T03:54:05.334Z,89.00
2017-08-05T03:56:35.322Z,90.00
2017-08-05T03:59:05.698Z,89.50
2017-08-05T04:01:36.415Z,90.10
2017-08-05T04:04:05.960Z,90.00
2017-08-05T04:06:35.654Z,90.90
2017-08-05T04:09:05.464Z,90.10
2017-08-05T04:11:35.338Z,90.40
2017-08-05T04:14:04.969Z,87.00
2017-08-05T04:16:34.509Z,88.80
2017-08-05T04:19:05.131Z,87.10
2017-08-05T04:21:34.943Z,86.00
2017-08-05T04:24:05.706Z,88.40
2017-08-05T04:26:35.814Z,88.50
2017-08-05T04:29:05.740Z,87.90
2017-08-05T04:31:35.515Z,88.90
2017-08-05T04:34:05.118Z,87.00
2017-08-05T04:36:34.989Z,86.00
2017-08-05T04:39:05.660Z,86.40
2017-08-05T04:41:35.549Z,84.50
2017-08-05T04:44:06.202Z,85.60
2017-08-05T04:46:37.236Z,85.90
2017-08-05T04:49:07.429Z,85.80
2017-08-05T04:51:37.844Z,84.40
2017-08-05T04:54:08.204Z,83.60
2017-08-05T04:56:38.087Z,83.70
2017-08-05T04:59:07.602Z,83.40
2017-08-05T05:01:37.527Z,83.00
2017-08-05T05:04:07.497Z,85.10
2017-08-05T05:06:37.082Z,86.40
2017-08-05T05:09:06.183Z,84.80
2017-08-05T05:11:35.970Z,82.70
2017-08-05T05:14:06.686Z,83.40
2017-08-05T05:16:36.428Z,84.20
2017-08-05T05:19:06.060Z,82.60
2017-08-05T05:21:35.599Z,81.60
2017-08-05T05:24:06.634Z,82.10
2017-08-05T05:26:36.219Z,81.70
2017-08-05T05:29:05.734Z,81.40
2017-08-05T05:31:35.523Z,82.20
2017-08-05T05:34:05.346Z,82.00
2017-08-05T05:36:35.099Z,82.40
2017-08-05T05:39:05.060Z,82.80
2017-08-05T05:41:34.563Z,81.40
2017-08-05T05:44:04.458Z,82.00
2017-08-05T05:46:34.040Z,81.80
2017-08-05T05:49:03.858Z,81.70
2017-08-05T05:51:33.693Z,82.10
2017-08-05T05:54:03.226Z,83.90
2017-08-05T05:56:33.112Z,81.70
2017-08-05T05:59:02.811Z,83.00
2017-08-05T06:01:32.368Z,81.90
2017-08-05T06:04:02.183Z,81.10
2017-08-05T06:06:31.755Z,80.00
2017-08-05T06:09:01.596Z,80.10
2017-08-05T06:11:31.167Z,80.30
2017-08-05T06:14:00.815Z,82.90
2017-08-05T06:16:30.646Z,83.80
2017-08-05T06:19:00.232Z,82.70
2017-08-05T06:21:29.772Z,83.10
2017-08-05T06:23:59.601Z,80.90
2017-08-05T06:26:29.144Z,80.40
2017-08-05T06:29:04.644Z,78.80
2017-08-05T06:31:34.215Z,77.40
2017-08-05T06:34:04.049Z,79.20
2017-08-05T06:36:33.947Z,78.30
2017-08-05T06:39:04.503Z,76.30
2017-08-05T06:41:34.100Z,72.50
2017-08-05T06:44:03.640Z,68.80
2017-08-05T06:46:33.518Z,63.30
2017-08-05T06:49:03.472Z,59.20
2017-08-05T06:51:33.068Z,60.80
2017-08-05T06:54:02.714Z,57.10
2017-08-05T06:56:32.666Z,56.90
2017-08-05T06:59:10.692Z,59.90
2017-08-05T07:01:40.699Z,60.10
2017-08-05T07:04:10.392Z,59.30
2017-08-05T07:06:40.214Z,59.10
2017-08-05T07:09:10.098Z,56.20
2017-08-05T07:11:40.178Z,54.00
2017-08-05T07:14:09.771Z,46.70
2017-08-05T07:16:39.374Z,45.90
2017-08-05T07:19:09.028Z,48.00
2017-08-05T07:21:39.254Z,44.20
2017-08-05T07:24:09.177Z,51.20
2017-08-05T07:26:39.074Z,55.60
2017-08-05T07:29:09.324Z,55.20
2017-08-05T07:31:38.969Z,51.70
2017-08-05T07:34:08.726Z,45.00
2017-08-05T07:36:38.509Z,41.30
2017-08-05T07:39:08.175Z,38.10
2017-08-05T07:41:38.795Z,43.90
2017-08-05T07:44:08.558Z,47.70
2017-08-05T07:46:38.160Z,49.60
2017-08-05T07:49:07.979Z,56.50
2017-08-05T07:51:37.839Z,59.50
2017-08-05T07:54:07.590Z,62.20
2017-08-05T07:56:38.105Z,58.00
2017-08-05T07:59:07.726Z,62.80
2017-08-05T08:01:37.623Z,62.80
2017-08-05T08:04:08.216Z,64.80
2017-08-05T08:06:37.896Z,64.30
2017-08-05T08:09:07.572Z,62.90
2017-08-05T08:11:38.492Z,60.80
2017-08-05T08:14:08.407Z,58.00
2017-08-05T08:16:38.743Z,55.80
2017-08-05T08:19:08.587Z,50.80
2017-08-05T08:21:38.439Z,49.10
2017-08-05T08:24:08.005Z,50.50
2017-08-05T08:26:37.539Z,54.60
2017-08-05T08:29:07.069Z,57.80
2017-08-05T08:31:36.740Z,59.90
2017-08-05T08:34:06.566Z,57.70
2017-08-05T08:36:36.072Z,58.60
2017-08-05T08:39:07.065Z,59.60
2017-08-05T08:41:36.919Z,62.90
2017-08-05T08:44:06.419Z,62.10
2017-08-05T08:46:35.982Z,66.70
2017-08-05T08:49:07.053Z,68.80
2017-08-05T08:51:46.324Z,69.20
2017-08-05T08:54:17.122Z,67.60
2017-08-05T08:56:47.104Z,63.90
2017-08-05T08:59:17.282Z,57.60
2017-08-05T09:01:47.761Z,56.60
2017-08-05T09:04:18.132Z,53.30
2017-08-05T09:06:48.015Z,51.20
2017-08-05T09:09:18.033Z,54.60
2017-08-05T09:11:47.727Z,57.70
2017-08-05T09:14:18.087Z,57.80
2017-08-05T09:16:47.843Z,55.80
2017-08-05T09:19:17.555Z,54.10
2017-08-05T09:21:47.275Z,56.80
2017-08-05T09:24:16.838Z,59.30
2017-08-05T09:26:46.717Z,55.50
2017-08-05T09:29:16.317Z,57.80
2017-08-05T09:31:45.932Z,58.50
2017-08-05T09:34:15.543Z,58.30
2017-08-05T09:36:45.168Z,58.80
2017-08-05T09:39:15.007Z,61.20
2017-08-05T09:41:46.598Z,58.20
2017-08-05T09:44:17.219Z,58.80
2017-08-05T09:46:47.506Z,54.10
2017-08-05T09:49:19.360Z,54.60
2017-08-05T09:51:48.991Z,56.30
2017-08-05T09:54:22.570Z,55.40
2017-08-05T09:56:52.617Z,57.80
2017-08-05T09:59:22.829Z,57.50
2017-08-05T10:01:52.485Z,60.00
2017-08-05T10:04:22.501Z,59.80
2017-08-05T10:06:52.387Z,59.30
2017-08-05T10:09:22.146Z,58.90
2017-08-05T10:11:51.876Z,59.70
2017-08-05T10:14:26.094Z,63.40
2017-08-05T10:16:55.713Z,67.30
2017-08-05T10:19:26.855Z,66.80
2017-08-05T10:21:56.584Z,66.50
2017-08-05T10:24:26.755Z,66.40
2017-08-05T10:26:57.140Z,66.20
2017-08-05T10:29:28.852Z,67.00
2017-08-05T10:31:58.884Z,68.00
2017-08-05T10:34:46.031Z,65.80
2017-08-05T10:37:17.703Z,66.80
2017-08-05T10:39:48.668Z,63.70
2017-08-05T10:43:48.404Z,63.80
2017-08-05T10:46:18.916Z,62.50
2017-08-05T10:48:48.758Z,63.20
2017-08-05T10:51:22.147Z,62.70
2017-08-05T10:53:52.097Z,63.10
2017-08-05T10:56:22.067Z,65.60
2017-08-05T10:58:59.303Z,64.60
2017-08-05T11:01:29.230Z,62.00
2017-08-05T11:04:06.340Z,63.90
2017-08-05T11:06:40.285Z,65.00
2017-08-05T11:09:10.328Z,64.20
2017-08-05T11:11:40.525Z,66.20
2017-08-05T11:14:10.171Z,64.40
2017-08-05T11:16:40.210Z,59.30
2017-08-05T11:19:12.475Z,56.80
2017-08-05T11:21:44.222Z,52.20
2017-08-05T11:24:14.080Z,48.90
2017-08-05T11:26:43.726Z,50.80
2017-08-05T11:29:13.975Z,50.00
2017-08-05T11:31:44.078Z,49.20
2017-08-05T11:34:13.865Z,49.60
2017-08-05T11:36:44.281Z,56.70
2017-08-05T11:39:14.313Z,59.90
2017-08-05T11:41:46.846Z,60.50
2017-08-05T11:44:25.328Z,59.70
2017-08-05T11:46:59.001Z,61.00
2017-08-05T11:49:28.998Z,60.90
2017-08-05T11:51:59.199Z,63.50
2017-08-05T11:54:28.963Z,67.00
2017-08-05T11:56:58.642Z,65.60
2017-08-05T11:59:28.596Z,67.80
2017-08-05T12:01:58.569Z,64.60
2017-08-05T12:04:42.976Z,70.70
2017-08-05T12:07:14.814Z,65.90
2017-08-05T12:09:44.871Z,65.10
2017-08-05T12:12:14.684Z,63.50
2017-08-05T12:14:47.031Z,62.40
2017-08-05T12:17:20.799Z,61.00
2017-08-05T12:19:50.552Z,62.10
2017-08-05T12:22:20.133Z,61.10
2017-08-05T12:24:49.963Z,60.60
2017-08-05T12:27:19.575Z,60.60
2017-08-05T12:29:49.476Z,60.60
2017-08-05T12:32:19.715Z,60.10
2017-08-05T12:34:49.886Z,59.70
2017-08-05T12:37:24.075Z,59.20
2017-08-05T12:39:54.168Z,58.30
2017-08-05T12:42:23.874Z,58.20
2017-08-05T12:44:53.548Z,58.30
2017-08-05T12:47:23.315Z,58.10
2017-08-05T12:49:52.959Z,59.10
2017-08-05T12:52:22.752Z,59.70
2017-08-05T12:54:52.267Z,60.40
2017-08-05T12:57:22.318Z,59.90
2017-08-05T12:59:52.228Z,60.80
2017-08-05T13:02:21.801Z,60.20
2017-08-05T13:04:51.393Z,59.70
2017-08-05T13:07:20.994Z,58.80
2017-08-05T13:09:50.530Z,59.80
2017-08-05T13:12:20.415Z,60.10
2017-08-05T13:14:49.991Z,59.80
2017-08-05T13:17:19.601Z,59.30
2017-08-05T13:19:49.417Z,58.70
2017-08-05T13:22:18.990Z,57.80
2017-08-05T13:24:48.524Z,57.30
2017-08-05T13:27:18.224Z,58.80
2017-08-05T13:29:47.828Z,59.30
2017-08-05T13:32:17.689Z,60.30
2017-08-05T13:34:47.256Z,59.40
2017-08-05T13:37:16.904Z,59.20
2017-08-05T13:39:46.515Z,59.50
2017-08-05T13:42:16.079Z,60.50
2017-08-05T13:44:45.861Z,59.20
2017-08-05T13:47:15.413Z,59.00
2017-08-05T13:49:45.126Z,59.30
2017-08-05T13:52:15.342Z,56.90
2017-08-05T13:54:45.474Z,56.50
2017-08-05T13:57:15.059Z,57.50
2017-08-05T13:59:44.620Z,58.30
2017-08-05T14:02:14.145Z,59.40
2017-08-05T14:04:44.026Z,59.50
2017-08-05T14:07:13.804Z,57.40
2017-08-05T14:09:43.836Z,57.70
2017-08-05T14:12:13.414Z,57.80
2017-08-05T14:14:45.332Z,57.40
2017-08-05T14:17:15.394Z,57.50
2017-08-05T14:19:45.127Z,55.30
2017-08-05T14:22:14.891Z,56.50
2017-08-05T14:24:45.004Z,56.20
2017-08-05T14:27:14.641Z,57.20
2017-08-05T14:29:44.560Z,55.00
2017-08-05T14:32:14.776Z,54.00
2017-08-05T14:34:44.953Z,54.30
2017-08-05T14:37:15.703Z,53.90
2017-08-05T14:39:45.528Z,53.80
2017-08-05T14:42:15.078Z,55.50
2017-08-05T14:44:46.081Z,56.00
2017-08-05T14:47:15.995Z,54.30
2017-08-05T14:49:46.793Z,55.00
2017-08-05T14:52:16.934Z,57.40
2017-08-05T14:54:46.547Z,57.00
2017-08-05T14:57:16.252Z,54.50
2017-08-05T15:01:15.944Z,56.30
2017-08-05T15:03:45.525Z,51.90
2017-08-05T15:06:15.568Z,56.20
2017-08-05T15:08:47.982Z,54.60
2017-08-05T15:11:23.886Z,55.20
2017-08-05T15:13:55.515Z,56.20
2017-08-05T15:16:26.219Z,55.40
2017-08-05T15:18:58.567Z,55.70
2017-08-05T15:21:33.958Z,56.40
2017-08-05T15:24:04.411Z,57.20
2017-08-05T15:26:36.319Z,56.40
2017-08-05T15:29:06.567Z,56.30
2017-08-05T15:31:36.260Z,54.80
2017-08-05T15:34:07.562Z,57.20
2017-08-05T15:36:38.952Z,55.80
2017-08-05T15:39:08.658Z,56.50
2017-08-05T15:41:39.100Z,57.80
2017-08-05T15:44:09.502Z,58.30
2017-08-05T15:46:39.217Z,55.20
2017-08-05T15:49:10.746Z,55.70
2017-08-05T15:51:40.505Z,55.70
2017-08-05T15:54:10.482Z,57.50
2017-08-05T15:56:40.077Z,58.90
2017-08-05T15:59:18.511Z,57.60
2017-08-05T16:01:59.234Z,58.30
2017-08-05T16:04:39.840Z,58.30
2017-08-05T16:07:16.054Z,58.40
2017-08-05T16:09:53.803Z,58.60
2017-08-05T16:12:23.544Z,58.90
2017-08-05T16:14:53.155Z,59.20
2017-08-05T16:17:23.049Z,59.40
2017-08-05T16:19:52.835Z,58.50
2017-08-05T16:22:23.223Z,59.50
2017-08-05T16:24:52.833Z,58.60
2017-08-05T16:27:22.633Z,58.80
2017-08-05T16:29:54.401Z,58.90
2017-08-05T16:32:24.281Z,61.50
2017-08-05T16:34:54.431Z,63.50
2017-08-05T16:37:26.031Z,63.40
2017-08-05T16:39:56.776Z,65.40
2017-08-05T16:42:29.092Z,64.80
2017-08-05T16:45:00.518Z,66.60
2017-08-05T16:47:30.374Z,67.50
2017-08-05T16:50:00.186Z,67.80
2017-08-05T16:52:29.863Z,67.00
2017-08-05T16:55:02.975Z,66.70
2017-08-05T16:57:33.391Z,66.70
2017-08-05T17:00:03.087Z,68.00
2017-08-05T17:02:34.714Z,67.20
2017-08-05T17:05:15.173Z,67.50
2017-08-05T17:07:46.674Z,68.50
2017-08-05T17:10:25.388Z,67.10
2017-08-05T17:12:54.957Z,67.50
2017-08-05T17:15:24.793Z,67.30
2017-08-05T17:17:54.592Z,67.10
2017-08-05T17:20:24.682Z,69.40
2017-08-05T17:22:54.362Z,69.00
2017-08-05T17:25:24.245Z,70.00
2017-08-05T17:27:54.198Z,70.30
2017-08-05T17:30:24.037Z,73.80
2017-08-05T17:32:54.106Z,73.50
2017-08-05T17:35:24.238Z,76.40
2017-08-05T17:37:58.253Z,74.70
2017-08-05T17:40:28.294Z,77.80
2017-08-05T17:42:58.305Z,76.10
2017-08-05T17:45:33.918Z,76.90
2017-08-05T17:48:04.043Z,77.60
2017-08-05T17:50:34.139Z,78.80
2017-08-05T17:53:07.252Z,79.20
2017-08-05T17:55:37.224Z,80.40
2017-08-05T17:58:07.130Z,78.20
2017-08-05T18:00:36.910Z,80.00
2017-08-05T18:03:06.999Z,79.70
2017-08-05T18:05:37.167Z,81.10
2017-08-05T18:08:06.989Z,80.90
2017-08-05T18:10:36.863Z,82.30
2017-08-05T18:13:06.845Z,83.50
2017-08-05T18:15:37.792Z,80.40
2017-08-05T18:18:07.730Z,79.90
2017-08-05T18:20:37.366Z,79.00
2017-08-05T18:23:07.475Z,78.40
2017-08-05T18:25:37.141Z,77.60
2017-08-05T18:28:07.331Z,77.90
2017-08-05T18:30:37.099Z,77.60
2017-08-05T18:33:06.812Z,79.40
2017-08-05T18:35:36.887Z,77.80
2017-08-05T18:38:06.648Z,77.70
2017-08-05T18:40:37.454Z,77.50
2017-08-05T18:43:07.375Z,77.80
2017-08-05T18:45:38.032Z,78.50
2017-08-05T18:48:08.648Z,79.30
2017-08-05T18:50:38.432Z,81.00
2017-08-05T18:53:08.533Z,82.20
2017-08-05T18:55:38.855Z,81.60
2017-08-05T18:58:08.741Z,81.30
2017-08-05T19:00:38.545Z,82.20
2017-08-05T19:03:08.537Z,82.00
2017-08-05T19:05:38.349Z,78.40
2017-08-05T19:08:08.074Z,77.90
2017-08-05T19:10:37.723Z,78.80
2017-08-05T19:13:09.432Z,78.40
2017-08-05T19:15:39.456Z,79.20
2017-08-05T19:18:09.166Z,79.80
2017-08-05T19:20:38.934Z,79.90
2017-08-05T19:23:08.984Z,79.70
2017-08-05T19:25:38.696Z,79.00
2017-08-05T19:28:08.391Z,80.40
2017-08-05T19:30:38.022Z,81.00
2017-08-05T19:33:07.855Z,82.20
2017-08-05T19:35:37.908Z,81.40
2017-08-05T19:38:07.511Z,82.20
2017-08-05T19:40:39.277Z,80.10
2017-08-05T19:43:09.363Z,80.40
2017-08-05T19:45:39.213Z,78.90
2017-08-05T19:48:08.978Z,79.00
2017-08-05T19:50:38.616Z,79.50
2017-08-05T19:53:08.357Z,80.70
2017-08-05T19:55:38.394Z,80.90
2017-08-05T19:58:08.104Z,80.60
2017-08-05T20:00:37.778Z,81.70
2017-08-05T20:03:07.515Z,80.80
2017-08-05T20:05:37.169Z,80.30
2017-08-05T20:08:07.162Z,80.10
2017-08-05T20:10:36.899Z,79.90
2017-08-05T20:13:06.655Z,79.90
2017-08-05T20:15:36.602Z,80.80
2017-08-05T20:18:06.235Z,80.10
2017-08-05T20:20:35.917Z,81.50
2017-08-05T20:23:05.536Z,80.30
2017-08-05T20:25:35.740Z,80.90
2017-08-05T20:28:05.776Z,80.70
2017-08-05T20:30:35.381Z,80.70
2017-08-05T20:33:05.209Z,80.80
2017-08-05T20:35:34.893Z,80.00
2017-08-05T20:38:04.575Z,80.10
2017-08-05T20:40:34.565Z,81.20
2017-08-05T20:43:04.250Z,81.80
2017-08-05T20:45:34.059Z,82.40
2017-08-05T20:48:04.293Z,81.70
2017-08-05T20:50:34.021Z,82.00
2017-08-05T20:53:03.723Z,81.90
2017-08-05T20:55:33.405Z,81.20
2017-08-05T20:58:03.694Z,81.10
2017-08-05T21:00:33.620Z,82.30
2017-08-05T21:03:03.405Z,82.50
2017-08-05T21:05:33.081Z,82.50
2017-08-05T21:08:02.781Z,81.80
2017-08-05T21:10:32.537Z,81.40
2017-08-05T21:13:02.426Z,81.70
2017-08-05T21:15:32.065Z,81.00
2017-08-05T21:18:01.687Z,80.90
2017-08-05T21:20:31.374Z,82.10
2017-08-05T21:23:01.161Z,82.30
2017-08-05T21:25:31.307Z,81.70
2017-08-05T21:28:06.024Z,82.20
2017-08-05T21:30:35.778Z,82.20
2017-08-05T21:33:06.662Z,81.70
2017-08-05T21:35:37.066Z,81.70
2017-08-05T21:38:06.794Z,81.20
2017-08-05T21:40:36.489Z,80.80
2017-08-05T21:43:06.233Z,81.50
2017-08-05T21:45:38.107Z,81.00
2017-08-05T21:50:57.513Z,82.00
2017-08-05T21:53:27.212Z,82.00
2017-08-05T21:55:56.990Z,82.50
2017-08-05T21:58:27.986Z,82.60
2017-08-05T22:00:57.694Z,82.70
2017-08-05T22:03:27.553Z,82.10
2017-08-05T22:05:57.681Z,82.30
2017-08-05T22:08:33.755Z,81.40
2017-08-05T22:11:03.989Z,82.30
2017-08-05T22:13:33.857Z,81.90
2017-08-05T22:16:03.643Z,81.60
2017-08-05T22:18:33.749Z,81.70
2017-08-05T22:21:03.510Z,81.70
2017-08-05T22:23:33.154Z,80.60
2017-08-05T22:26:14.186Z,80.80
2017-08-05T22:28:53.913Z,82.60
2017-08-05T22:31:24.415Z,82.70
2017-08-05T22:33:54.490Z,82.10
2017-08-05T22:36:25.065Z,81.90
2017-08-05T22:38:54.991Z,81.40
2017-08-05T22:41:25.075Z,80.90
2017-08-05T22:43:55.060Z,80.60
2017-08-05T22:46:24.666Z,79.60
2017-08-05T22:48:54.322Z,78.90
2017-08-05T22:51:24.187Z,78.40
2017-08-05T22:53:53.867Z,78.80
2017-08-05T22:56:23.498Z,78.80
2017-08-05T22:58:53.341Z,78.50
2017-08-05T23:01:22.918Z,78.30
2017-08-05T23:03:52.617Z,78.50
2017-08-05T23:06:23.011Z,78.30
2017-08-05T23:08:52.717Z,79.10
2017-08-05T23:11:22.594Z,78.70
2017-08-05T23:13:53.068Z,78.60
2017-08-05T23:16:23.338Z,78.50
2017-08-05T23:18:53.211Z,78.10
2017-08-05T23:21:23.815Z,77.60
2017-08-05T23:23:53.883Z,77.10
2017-08-05T23:26:24.683Z,78.10
2017-08-05T23:28:54.695Z,78.00
2017-08-05T23:31:24.607Z,78.40
2017-08-05T23:33:55.320Z,79.30
2017-08-05T23:36:25.326Z,79.90
2017-08-05T23:38:55.936Z,81.80
2017-08-05T23:41:25.807Z,82.00
2017-08-05T23:43:55.847Z,84.10
2017-08-05T23:46:26.050Z,86.20
2017-08-05T23:48:55.924Z,87.90
2017-08-05T23:51:26.695Z,90.50
2017-08-05T23:53:56.646Z,90.50
2017-08-05T23:56:26.273Z,91.10
2017-08-05T23:58:55.930Z,91.20
